Alviso, California
Current Conditions -  °F | °C
As of 8:56 AM on Friday 19 Dec 2014 (Local Time) from KNUQ Reporting Station
Overcast Overcast  
Wind Chill: 13°   Ceiling: 9000
Heat Index: 13°   Visibility: 10mi
Dew Point:   Wind: 10mph
Humidity: 75%   Direction: 130°SE
Pressure: 30.17"   Gusts: NA
Location:  37.43°N, 121.97°W
Report Text: KNUQ 191656Z 13009KT 10SM OVC090 13/09 A3017 RMK AO2 SLP219 T01330089
Loading
Personal Weather Stations






























Interactive Weather Map New forecast layout! Learn more

10-Day Weather Forecast

Advertisements
Track Severe Weather on mobile